Bluefield, West Virginia
Current Conditions -  °F | °C
As of 4:52 PM on Wednesday 28 Jan 2015 (Local Time) from KBLF Reporting Station
Clear Clear  
Wind Chill: -4°   Ceiling: Unl
Heat Index:   Visibility: 10mi
Dew Point: -9°   Wind: 9mph
Humidity: 50%   Direction: 270°W
Pressure: 30.2"   Gusts: NA
Location:  37.27°N, 81.22°W
Report Text: KBLF 282152Z AUTO 27008KT 10SM CLR 01/M09 A3020 RMK AO2 SLP253 T00061089
Loading
Personal Weather Stations






























Interactive Weather Map New forecast layout! Learn more

10-Day Weather Forecast

Advertisements
Track Severe Weather on mobile